This is the latest recevied weather packets stored in our database for station/object K0JRF-13. If no packets are shown the sender has not sent any weather packets the latest 10 day(s).
| Time | Temp. | Humidity | Pressure | Rain* | Wind** | Luminosity | Snow |
|---|---|---|---|---|---|---|---|
| 1787428652 | 23.33° C | 75% | 1010.8 hPa | - | - | - | - |
| 1787428052 | 23.33° C | 74% | 1010.5 hPa | - | - | - | - |
| 1787427452 | 23.33° C | 72% | 1010.5 hPa | - | - | - | - |
| 1787426852 | 24.44° C | 71% | 1010.5 hPa | - | - | - | - |
| 1787426252 | 25.56° C | 67% | 1010.8 hPa | - | - | - | - |
| 1787425652 | 26.11° C | 64% | 1010.5 hPa | - | - | - | - |
| 1787425052 | 26.67° C | 62% | 1010.5 hPa | - | - | - | - |
| 1787424452 | 27.22° C | 60% | 1010.5 hPa | - | - | - | - |
| 1787423852 | 27.22° C | 56% | 1010.5 hPa | - | - | - | - |
| 1787422993 | 27.78° C | 54% | 1010.5 hPa | - | - | - | - |
| 1787422393 | 28.33° C | 53% | 1010.5 hPa | - | - | - | - |
| 1787421754 | 31.11° C | 48% | 1010.5 hPa | - | - | - | - |
| 1787421154 | 32.22° C | 47% | 1010.2 hPa | - | - | - | - |
| 1787421048 | 32.22° C | 50% | 1010.5 hPa | - | - | - | - |
| 1787420897 | 32.22° C | 49% | 1010.8 hPa | - | - | - | - |
| 1787420297 | 31.11° C | 54% | 1011.2 hPa | - | - | - | - |
| 1787419697 | 31.11° C | 54% | 1011.2 hPa | - | - | - | - |
| 1787419097 | 30.56° C | 53% | 1011.2 hPa | - | - | - | - |
| 1787418497 | 30° C | 59% | 1011.5 hPa | - | - | - | - |
| 1787417897 | 30.56° C | 57% | 1011.9 hPa | - | - | - | - |
| 1787417297 | 30° C | 56% | 1011.9 hPa | - | - | - | - |
| 1787416698 | 29.44° C | 58% | 1011.9 hPa | - | - | - | - |
| 1787416626 | 29.44° C | 58% | 1011.9 hPa | - | - | - | - |
| 1787416548 | 29.44° C | 61% | 1011.9 hPa | - | - | - | - |
| 1787416423 | 29.44° C | 61% | 1011.9 hPa | - | - | - | - |
* Rain since midnight (hover to see other rain measurements)
** Current wind speed in m/s (hover to see current wind gust speed)